Wichita, Kansas
Current Conditions -  °F | °C
As of 1:58 PM on Sunday 25 Jan 2015 (Local Time) from KIAB Reporting Station
Broken Clouds Broken Clouds  
Wind Chill: 40°   Ceiling: 4100
Heat Index: 48°   Visibility: 10mi
Dew Point: 31°   Wind: 28mph
Humidity: 51%   Direction: 350°N
Pressure: 29.99"   Gusts: 38mph
Location:  37.69°N, 97.33°W
Report Text: KIAB 251958Z AUTO 35024G33KT 10SM BKN041 09/M01 A2999 RMK AO2 PK WND 34035/30 SLP159 T00901008 $
Loading
Personal Weather Stations






























Interactive Weather Map New forecast layout! Learn more

10-Day Weather Forecast

Advertisements
Track Severe Weather on mobile